Dunlap Lake, Illinois
Current Conditions -  °F | °C
As of 12:15 AM on Sunday 23 Nov 2014 (Local Time) from KALN Reporting Station
Overcast Overcast  
Wind Chill: 50°   Ceiling: 9000
Heat Index: 50°   Visibility: 10mi
Dew Point: 48°   Wind: 7mph
Humidity: 90%   Direction: 140°SE
Pressure: 29.87"   Gusts: NA
Location:  38.8031°N, 89.9742°W
Report Text: KALN 230615Z AUTO 14006KT 10SM BKN090 OVC120 10/09 A2987 RMK AO2 T01020087
Loading
Personal Weather Stations






























Interactive Weather Map New forecast layout! Learn more

10-Day Weather Forecast

Advertisements
Track Severe Weather on mobile